Time;durP1;ratioP1;P1;durP2;ratioP2;P2;SDS_P1;SDS_P2;PMS_P1;PMS_P2;Temp;Humidity;BMP_temperature;BMP_pressure;BME280_temperature;BME280_humidity;BME280_pressure;Samples;Min_cycle;Max_cycle;Signal;HPM_P1;HPM_P2
2023/05/13 00:02:59;;;;;;;5.82;2.33;;;;;;;;;;13012141;19;20006;-64
2023/05/13 00:07:17;;;;;;;3.35;1.80;;;;;;;;;;13011314;19;20014;-65
2023/05/13 00:11:34;;;;;;;5.78;1.80;;;;;;;;;;13010300;19;20018;-65
2023/05/13 00:15:52;;;;;;;3.33;1.95;;;;;;;;;;13011184;19;20006;-65
2023/05/13 00:20:10;;;;;;;4.13;2.25;;;;;;;;;;13010348;19;20473;-64
2023/05/13 00:24:28;;;;;;;3.22;1.77;;;;;;;;;;13010139;19;20457;-65
2023/05/13 00:28:45;;;;;;;5.03;2.00;;;;;;;;;;13010654;19;20010;-66
2023/05/13 00:33:06;;;;;;;7.15;2.33;;;;;;;;;;13010261;19;20006;-65
2023/05/13 00:37:23;;;;;;;3.65;2.10;;;;;;;;;;13010147;19;20010;-64
2023/05/13 00:41:41;;;;;;;2.72;1.88;;;;;;;;;;13009597;19;20014;-65
2023/05/13 00:45:59;;;;;;;3.08;1.83;;;;;;;;;;13008506;19;20006;-65
2023/05/13 00:50:17;;;;;;;7.18;2.35;;;;;;;;;;13009533;19;20484;-65
2023/05/13 00:54:35;;;;;;;;;;;;;;;;;;13008768;19;20103;-65
2023/05/13 00:58:53;;;;;;;4.43;1.90;;;;;;;;;;13008590;19;19929;-64
2023/05/13 01:03:18;;;;;;;4.25;1.98;;;;;;;;;;13009246;19;20045;-64
2023/05/13 01:07:55;;;;;;;6.47;2.17;;;;;;;;;;13007370;19;20017;-65
2023/05/13 01:12:20;;;;;;;5.00;2.45;;;;;;;;;;13005188;19;20006;-67
2023/05/13 01:16:54;;;;;;;6.20;2.10;;;;;;;;;;13008287;19;20021;-64
2023/05/13 01:21:12;;;;;;;3.05;2.05;;;;;;;;;;13007346;19;20042;-64
2023/05/13 01:25:30;;;;;;;4.50;2.40;;;;;;;;;;13005429;19;20323;-64
2023/05/13 01:29:49;;;;;;;9.30;1.83;;;;;;;;;;13007275;19;20117;-66
2023/05/13 01:34:09;;;;;;;3.05;2.00;;;;;;;;;;13004993;19;20025;-65
2023/05/13 01:38:28;;;;;;;2.92;1.90;;;;;;;;;;13006909;19;20473;-65
2023/05/13 01:42:45;;;;;;;4.32;1.83;;;;;;;;;;13004435;19;20308;-64
2023/05/13 01:47:03;;;;;;;3.85;2.20;;;;;;;;;;13005664;19;20010;-65
2023/05/13 01:51:21;;;;;;;3.22;1.73;;;;;;;;;;13006246;19;20034;-65
2023/05/13 01:55:38;;;;;;;3.45;2.22;;;;;;;;;;13005891;19;19999;-65
2023/05/13 01:59:56;;;;;;;3.92;2.20;;;;;;;;;;13006046;19;20006;-64
2023/05/13 02:04:14;;;;;;;4.28;2.13;;;;;;;;;;13004725;19;20002;-65
2023/05/13 02:08:32;;;;;;;9.98;2.40;;;;;;;;;;13005587;19;20021;-65
2023/05/13 02:12:49;;;;;;;7.25;2.33;;;;;;;;;;13004945;19;20007;-64
2023/05/13 02:17:07;;;;;;;3.80;2.20;;;;;;;;;;13004326;19;20010;-65
2023/05/13 02:21:25;;;;;;;3.90;2.42;;;;;;;;;;13003384;19;20023;-66
2023/05/13 02:25:43;;;;;;;2.67;1.88;;;;;;;;;;13004464;19;20032;-64
2023/05/13 02:30:01;;;;;;;5.68;2.03;;;;;;;;;;13004652;19;20322;-64
2023/05/13 02:34:20;;;;;;;5.18;2.35;;;;;;;;;;13003390;19;20006;-65
2023/05/13 02:38:37;;;;;;;6.00;2.60;;;;;;;;;;13001907;19;20119;-64
2023/05/13 02:42:55;;;;;;;3.53;2.03;;;;;;;;;;13003028;19;20010;-66
2023/05/13 02:47:12;;;;;;;4.10;2.33;;;;;;;;;;13002514;19;20026;-66
2023/05/13 02:51:30;;;;;;;4.05;2.08;;;;;;;;;;13002940;19;20003;-64
2023/05/13 02:55:47;;;;;;;6.43;2.30;;;;;;;;;;13003126;19;20017;-64
2023/05/13 03:00:08;;;;;;;4.25;1.77;;;;;;;;;;13002339;19;20357;-64
2023/05/13 03:04:25;;;;;;;4.30;2.22;;;;;;;;;;13002300;19;20107;-64
2023/05/13 03:08:43;;;;;;;8.65;2.22;;;;;;;;;;13002307;19;20456;-64
2023/05/13 03:13:01;;;;;;;5.00;2.42;;;;;;;;;;13003055;19;20062;-65
2023/05/13 03:17:19;;;;;;;3.97;2.20;;;;;;;;;;13001385;19;20003;-66
2023/05/13 03:21:36;;;;;;;4.60;2.50;;;;;;;;;;13001171;19;20034;-64
2023/05/13 03:25:54;;;;;;;2.17;1.73;;;;;;;;;;13001400;19;20026;-65
2023/05/13 03:30:12;;;;;;;3.40;2.08;;;;;;;;;;13000538;19;20006;-66
2023/05/13 03:34:31;;;;;;;3.58;2.92;;;;;;;;;;13008914;19;20009;-65
2023/05/13 03:38:48;;;;;;;3.80;2.40;;;;;;;;;;13013588;19;20018;-65
2023/05/13 03:43:06;;;;;;;5.10;2.20;;;;;;;;;;13012313;19;20022;-64
2023/05/13 03:47:24;;;;;;;4.50;2.20;;;;;;;;;;13013587;19;20339;-64
2023/05/13 03:51:41;;;;;;;3.95;2.10;;;;;;;;;;13013530;19;20472;-64
2023/05/13 03:55:59;;;;;;;2.45;1.77;;;;;;;;;;13012952;19;20014;-64
2023/05/13 04:00:17;;;;;;;3.88;2.28;;;;;;;;;;13012298;19;20007;-64
2023/05/13 04:04:34;;;;;;;7.45;2.33;;;;;;;;;;13011497;19;20002;-65
2023/05/13 04:08:52;;;;;;;3.70;1.98;;;;;;;;;;13012001;19;19998;-64
2023/05/13 04:13:10;;;;;;;3.67;2.15;;;;;;;;;;13010686;19;20437;-64
2023/05/13 04:17:28;;;;;;;2.80;1.80;;;;;;;;;;13011794;19;20385;-65
2023/05/13 04:21:45;;;;;;;3.53;1.83;;;;;;;;;;13011109;19;20018;-65
2023/05/13 04:26:03;;;;;;;2.50;1.95;;;;;;;;;;13004631;19;20038;-65
2023/05/13 04:30:21;;;;;;;4.93;2.15;;;;;;;;;;13010739;19;20018;-65
2023/05/13 04:34:39;;;;;;;6.95;2.25;;;;;;;;;;13010903;19;20456;-65
2023/05/13 04:38:56;;;;;;;2.90;1.58;;;;;;;;;;13010649;19;20025;-65
2023/05/13 04:43:14;;;;;;;5.97;2.08;;;;;;;;;;13008617;19;20029;-66
2023/05/13 04:47:36;;;;;;;5.38;2.30;;;;;;;;;;13009844;19;20018;-64
2023/05/13 04:51:54;;;;;;;6.93;2.55;;;;;;;;;;13010128;19;20011;-65
2023/05/13 04:56:12;;;;;;;;;;;;;;;;;;13010207;19;20464;-65
2023/05/13 05:00:30;;;;;;;6.93;2.53;;;;;;;;;;13009323;19;19999;-65
2023/05/13 05:04:48;;;;;;;3.25;2.00;;;;;;;;;;13008311;19;20014;-66
2023/05/13 05:09:05;;;;;;;3.45;2.17;;;;;;;;;;13009501;19;20017;-66
2023/05/13 05:13:23;;;;;;;2.95;1.77;;;;;;;;;;13008814;19;20007;-65
2023/05/13 05:17:44;;;;;;;2.65;1.88;;;;;;;;;;13008715;19;20006;-66
2023/05/13 05:22:02;;;;;;;4.22;1.67;;;;;;;;;;13007660;19;20014;-66
2023/05/13 05:26:21;;;;;;;2.75;1.73;;;;;;;;;;13007734;19;20072;-65
2023/05/13 05:30:39;;;;;;;6.95;1.70;;;;;;;;;;13007882;19;20041;-66
2023/05/13 05:34:56;;;;;;;1.23;0.93;;;;;;;;;;13007622;19;20011;-65
2023/05/13 05:39:14;;;;;;;3.33;1.95;;;;;;;;;;13006543;19;20006;-65
2023/05/13 05:43:32;;;;;;;2.72;1.50;;;;;;;;;;13007020;19;20010;-63
2023/05/13 05:47:49;;;;;;;2.00;1.00;;;;;;;;;;13006716;19;20011;-65
2023/05/13 05:52:09;;;;;;;2.03;1.45;;;;;;;;;;13005636;19;20014;-65
2023/05/13 05:56:27;;;;;;;4.65;1.63;;;;;;;;;;13003446;19;20014;-65
2023/05/13 06:00:45;;;;;;;2.75;1.20;;;;;;;;;;13006365;19;20038;-65
2023/05/13 06:05:03;;;;;;;2.03;1.20;;;;;;;;;;13004865;19;20009;-65
2023/05/13 06:09:20;;;;;;;1.52;1.30;;;;;;;;;;13005737;19;20447;-66
2023/05/13 06:13:38;;;;;;;;;;;;;;;;;;13006149;19;20030;-65
2023/05/13 06:17:56;;;;;;;2.28;1.30;;;;;;;;;;13005661;19;19925;-64
2023/05/13 06:22:14;;;;;;;;;;;;;;;;;;13005281;19;20054;-65
2023/05/13 06:26:31;;;;;;;2.90;1.30;;;;;;;;;;13004839;19;19926;-65
2023/05/13 06:30:49;;;;;;;7.22;1.70;;;;;;;;;;13004331;19;20010;-66
2023/05/13 06:35:07;;;;;;;5.22;1.13;;;;;;;;;;13003507;19;20018;-65
2023/05/13 06:39:25;;;;;;;;;;;;;;;;;;13004888;19;20010;-65
2023/05/13 06:43:44;;;;;;;2.35;1.60;;;;;;;;;;13003740;19;19922;-66
2023/05/13 06:48:04;;;;;;;1.70;0.95;;;;;;;;;;13003293;19;20007;-65
2023/05/13 06:52:22;;;;;;;3.30;1.77;;;;;;;;;;13003768;19;19998;-65
2023/05/13 06:56:39;;;;;;;3.10;1.05;;;;;;;;;;13003114;19;20347;-65
2023/05/13 07:00:57;;;;;;;3.88;1.40;;;;;;;;;;13003165;19;20014;-65
2023/05/13 07:05:15;;;;;;;4.40;1.30;;;;;;;;;;13002435;19;20002;-65
2023/05/13 07:09:33;;;;;;;0.50;0.50;;;;;;;;;;13002497;19;20496;-65
2023/05/13 07:13:51;;;;;;;4.43;1.35;;;;;;;;;;13002074;19;20002;-65
2023/05/13 07:18:09;;;;;;;1.42;1.25;;;;;;;;;;13001029;19;20007;-66
2023/05/13 07:22:27;;;;;;;1.40;0.90;;;;;;;;;;13001482;19;19999;-66
2023/05/13 07:26:45;;;;;;;1.92;0.90;;;;;;;;;;13001013;19;20007;-67
2023/05/13 07:31:06;;;;;;;3.63;1.30;;;;;;;;;;13001313;19;20010;-66
2023/05/13 07:35:23;;;;;;;3.72;1.13;;;;;;;;;;13001187;19;20022;-65
2023/05/13 07:39:41;;;;;;;1.55;1.13;;;;;;;;;;13001420;19;20336;-66
2023/05/13 07:43:59;;;;;;;2.80;1.15;;;;;;;;;;13000697;19;20047;-66
2023/05/13 07:48:18;;;;;;;7.75;1.50;;;;;;;;;;13000912;19;20014;-66
2023/05/13 07:52:35;;;;;;;2.35;1.30;;;;;;;;;;13000449;19;20483;-65
2023/05/13 07:56:53;;;;;;;4.25;1.33;;;;;;;;;;13000057;19;20022;-66
2023/05/13 08:01:11;;;;;;;2.08;1.20;;;;;;;;;;13000598;19;20006;-65
2023/05/13 08:05:28;;;;;;;4.60;1.40;;;;;;;;;;13000047;19;20006;-65
2023/05/13 08:09:46;;;;;;;2.22;1.27;;;;;;;;;;12999570;19;20011;-66
2023/05/13 08:14:04;;;;;;;6.10;1.27;;;;;;;;;;12998415;19;20006;-65
2023/05/13 08:18:22;;;;;;;1.88;1.40;;;;;;;;;;13000339;19;20017;-65
2023/05/13 08:22:41;;;;;;;1.80;1.15;;;;;;;;;;13011595;19;20006;-65
2023/05/13 08:26:59;;;;;;;1.55;1.40;;;;;;;;;;13011437;19;20106;-65
2023/05/13 08:31:17;;;;;;;2.97;1.48;;;;;;;;;;13010981;19;20018;-65
2023/05/13 08:35:34;;;;;;;1.00;0.90;;;;;;;;;;13010456;19;20025;-65
2023/05/13 08:39:54;;;;;;;2.30;1.50;;;;;;;;;;13011715;19;20013;-66
2023/05/13 08:44:13;;;;;;;1.25;0.85;;;;;;;;;;13009373;19;20006;-67
2023/05/13 08:48:33;;;;;;;1.65;1.00;;;;;;;;;;13008377;19;20452;-65
2023/05/13 08:52:52;;;;;;;2.00;1.27;;;;;;;;;;13009922;19;20017;-67
2023/05/13 08:57:10;;;;;;;1.30;0.70;;;;;;;;;;13009516;19;20017;-66
2023/05/13 09:01:29;;;;;;;2.05;1.17;;;;;;;;;;13009807;19;20021;-65
2023/05/13 09:05:47;;;;;;;1.20;0.95;;;;;;;;;;13006815;19;20015;-66
2023/05/13 09:10:07;;;;;;;2.40;1.67;;;;;;;;;;13008503;19;19998;-66
2023/05/13 09:14:31;;;;;;;2.80;1.25;;;;;;;;;;13009339;19;20014;-65
2023/05/13 09:18:57;;;;;;;4.20;1.25;;;;;;;;;;13008896;19;20025;-66
2023/05/13 09:23:17;;;;;;;1.27;0.85;;;;;;;;;;13008239;19;20034;-65
2023/05/13 09:27:45;;;;;;;5.55;1.77;;;;;;;;;;13005993;19;20002;-66
2023/05/13 09:32:08;;;;;;;1.83;1.45;;;;;;;;;;13004806;19;20484;-65
2023/05/13 09:36:26;;;;;;;1.10;0.93;;;;;;;;;;13008049;19;20338;-67
2023/05/13 09:40:55;;;;;;;3.53;1.10;;;;;;;;;;13007395;19;20021;-67
2023/05/13 09:45:15;;;;;;;1.67;0.98;;;;;;;;;;13004042;19;20034;-66
2023/05/13 09:49:33;;;;;;;19.52;1.92;;;;;;;;;;13007169;19;20094;-66
2023/05/13 09:53:51;;;;;;;1.67;0.77;;;;;;;;;;13005383;19;20013;-68
2023/05/13 09:58:11;;;;;;;0.90;0.68;;;;;;;;;;13006266;19;20014;-66
2023/05/13 10:02:30;;;;;;;2.58;1.67;;;;;;;;;;13006578;19;20026;-65
2023/05/13 10:06:48;;;;;;;1.75;1.08;;;;;;;;;;13003991;19;20006;-65
2023/05/13 10:11:07;;;;;;;2.10;1.17;;;;;;;;;;13004642;19;20010;-66
2023/05/13 10:15:25;;;;;;;1.75;0.80;;;;;;;;;;13004256;19;20393;-66
2023/05/13 10:19:43;;;;;;;1.83;1.27;;;;;;;;;;13003913;19;20024;-65
2023/05/13 10:24:02;;;;;;;2.05;1.02;;;;;;;;;;13002712;19;19998;-67
2023/05/13 10:28:20;;;;;;;2.70;1.15;;;;;;;;;;13004261;19;19995;-66
2023/05/13 10:32:40;;;;;;;1.88;0.70;;;;;;;;;;13004552;19;20014;-66
2023/05/13 10:37:16;;;;;;;1.30;0.52;;;;;;;;;;13004859;19;20042;-66
2023/05/13 10:42:11;;;;;;;2.83;1.40;;;;;;;;;;13003548;19;20469;-65
2023/05/13 10:46:29;;;;;;;2.58;1.17;;;;;;;;;;13002823;19;20002;-65
2023/05/13 10:50:54;;;;;;;1.70;0.90;;;;;;;;;;13003167;19;20496;-65
2023/05/13 10:55:18;;;;;;;3.15;1.30;;;;;;;;;;13002747;19;20022;-65
2023/05/13 10:59:37;;;;;;;3.00;1.40;;;;;;;;;;13002968;19;20021;-65
2023/05/13 11:03:59;;;;;;;4.53;1.27;;;;;;;;;;13002777;19;20017;-65
2023/05/13 11:08:56;;;;;;;1.83;1.13;;;;;;;;;;13001978;19;20018;-66
2023/05/13 11:13:13;;;;;;;5.00;1.40;;;;;;;;;;12995828;19;20014;-65
2023/05/13 11:17:33;;;;;;;3.22;0.80;;;;;;;;;;13000131;19;20011;-65
2023/05/13 11:21:56;;;;;;;3.08;1.20;;;;;;;;;;13000571;19;20006;-65
2023/05/13 11:26:17;;;;;;;1.63;1.20;;;;;;;;;;13001016;19;20011;-65
2023/05/13 11:30:35;;;;;;;3.33;1.35;;;;;;;;;;13001928;19;20343;-66
2023/05/13 11:34:53;;;;;;;3.90;1.25;;;;;;;;;;13000989;19;20438;-65
2023/05/13 11:39:19;;;;;;;7.22;1.17;;;;;;;;;;12999071;19;20333;-64
2023/05/13 11:43:38;;;;;;;0.90;0.82;;;;;;;;;;13000779;19;20006;-65
2023/05/13 11:47:56;;;;;;;1.50;0.90;;;;;;;;;;13000529;19;20006;-66
2023/05/13 11:52:34;;;;;;;8.90;1.48;;;;;;;;;;13000287;19;20011;-65
2023/05/13 11:56:51;;;;;;;1.88;1.30;;;;;;;;;;13012610;19;20011;-65
2023/05/13 12:01:15;;;;;;;2.78;1.17;;;;;;;;;;13012093;19;20476;-66
2023/05/13 12:05:33;;;;;;;0.60;0.50;;;;;;;;;;13011612;19;20026;-66
2023/05/13 12:09:52;;;;;;;3.60;1.20;;;;;;;;;;13010288;19;20019;-66
2023/05/13 12:14:09;;;;;;;0.60;0.60;;;;;;;;;;13010641;19;20014;-65
2023/05/13 12:18:27;;;;;;;8.55;1.20;;;;;;;;;;13010376;19;20018;-65
2023/05/13 12:22:45;;;;;;;2.60;1.83;;;;;;;;;;13011217;19;20021;-65
2023/05/13 12:27:04;;;;;;;;;;;;;;;;;;13010842;19;20369;-66
2023/05/13 12:31:22;;;;;;;2.40;1.58;;;;;;;;;;13011507;19;19922;-65
2023/05/13 12:35:41;;;;;;;1.45;0.95;;;;;;;;;;13011074;19;20003;-65
2023/05/13 12:40:12;;;;;;;3.85;1.75;;;;;;;;;;13010447;19;19999;-65
2023/05/13 12:44:30;;;;;;;1.85;1.13;;;;;;;;;;13009622;19;20006;-67
2023/05/13 12:48:53;;;;;;;1.75;0.88;;;;;;;;;;13009083;19;20095;-65
2023/05/13 12:53:11;;;;;;;2.47;1.08;;;;;;;;;;13009093;19;20018;-66
2023/05/13 12:57:29;;;;;;;1.95;1.20;;;;;;;;;;13009802;19;20003;-67
2023/05/13 13:01:50;;;;;;;1.60;0.68;;;;;;;;;;13009092;19;20018;-65
2023/05/13 13:06:09;;;;;;;3.13;1.27;;;;;;;;;;13007669;19;20002;-65
2023/05/13 13:10:27;;;;;;;0.75;0.40;;;;;;;;;;13009331;19;20017;-65
2023/05/13 13:14:45;;;;;;;1.13;0.77;;;;;;;;;;13008728;19;20018;-64
2023/05/13 13:19:03;;;;;;;2.65;1.33;;;;;;;;;;13007844;19;20007;-64
2023/05/13 13:23:21;;;;;;;1.05;0.73;;;;;;;;;;13007966;19;20034;-65
2023/05/13 13:27:38;;;;;;;;;;;;;;;;;;13007606;19;20010;-65
2023/05/13 13:31:56;;;;;;;0.88;0.80;;;;;;;;;;13007746;19;19914;-65
2023/05/13 13:36:14;;;;;;;0.57;0.43;;;;;;;;;;13007588;19;20018;-64
2023/05/13 13:40:31;;;;;;;0.22;0.22;;;;;;;;;;13007658;19;20456;-66
2023/05/13 13:44:49;;;;;;;0.20;0.20;;;;;;;;;;13006558;19;20037;-64
2023/05/13 13:49:07;;;;;;;0.73;0.70;;;;;;;;;;13004782;19;20003;-64
2023/05/13 13:53:40;;;;;;;1.63;0.80;;;;;;;;;;13005983;19;20086;-64
2023/05/13 13:57:57;;;;;;;2.20;1.02;;;;;;;;;;13005736;19;20026;-64
2023/05/13 14:02:16;;;;;;;0.65;0.45;;;;;;;;;;13005488;19;20093;-66
2023/05/13 14:06:34;;;;;;;2.30;0.90;;;;;;;;;;13004598;19;20015;-64
2023/05/13 14:10:52;;;;;;;;;;;;;;;;;;13004770;19;20009;-65
2023/05/13 14:15:10;;;;;;;;;;;;;;;;;;13005309;19;19914;-65
2023/05/13 14:19:28;;;;;;;1.17;0.80;;;;;;;;;;13003431;19;19910;-65
2023/05/13 14:23:46;;;;;;;;;;;;;;;;;;13003092;19;20007;-64
2023/05/13 14:28:03;;;;;;;1.48;0.80;;;;;;;;;;13000758;19;20325;-65
2023/05/13 14:32:21;;;;;;;3.67;1.05;;;;;;;;;;13002480;19;20030;-65
2023/05/13 14:36:39;;;;;;;1.70;0.80;;;;;;;;;;13004693;19;20054;-64
2023/05/13 14:40:57;;;;;;;1.77;1.00;;;;;;;;;;13003916;19;20030;-65
2023/05/13 14:45:14;;;;;;;;;;;;;;;;;;13000637;19;20111;-65
2023/05/13 14:49:35;;;;;;;1.33;0.70;;;;;;;;;;12999549;19;19929;-65
2023/05/13 14:53:52;;;;;;;3.50;0.88;;;;;;;;;;12999251;19;20015;-65
2023/05/13 14:58:11;;;;;;;3.55;1.20;;;;;;;;;;12999063;19;20506;-64
2023/05/13 15:02:29;;;;;;;1.80;1.10;;;;;;;;;;12999788;19;20466;-65
2023/05/13 15:06:46;;;;;;;;;;;;;;;;;;12998384;19;20011;-65
2023/05/13 15:11:04;;;;;;;1.95;1.40;;;;;;;;;;12997866;19;19919;-65
2023/05/13 15:15:22;;;;;;;1.20;1.05;;;;;;;;;;12999147;19;20326;-65
2023/05/13 15:19:40;;;;;;;2.80;1.33;;;;;;;;;;12998274;19;20472;-65
2023/05/13 15:23:58;;;;;;;;;;;;;;;;;;12998645;19;20405;-63
2023/05/13 15:28:15;;;;;;;1.38;0.77;;;;;;;;;;12993580;19;20219;-64
2023/05/13 15:32:33;;;;;;;1.33;0.90;;;;;;;;;;12997813;19;20018;-65
2023/05/13 15:36:51;;;;;;;1.52;1.10;;;;;;;;;;12997589;19;20041;-66
2023/05/13 15:41:09;;;;;;;4.45;1.15;;;;;;;;;;12995727;19;20015;-66
2023/05/13 15:45:26;;;;;;;2.47;1.13;;;;;;;;;;12847318;19;2949485;-65
2023/05/13 15:49:44;;;;;;;5.40;1.60;;;;;;;;;;13000069;19;20006;-65
2023/05/13 15:54:01;;;;;;;0.95;0.63;;;;;;;;;;12999300;19;20021;-67
2023/05/13 15:58:19;;;;;;;;;;;;;;;;;;12999025;19;20015;-66
2023/05/13 16:02:38;;;;;;;1.25;0.90;;;;;;;;;;12999307;19;20326;-65
2023/05/13 16:06:56;;;;;;;5.78;1.02;;;;;;;;;;12998932;19;20007;-66
2023/05/13 16:11:13;;;;;;;2.73;0.77;;;;;;;;;;12996845;19;20500;-65
2023/05/13 16:15:31;;;;;;;2.53;1.00;;;;;;;;;;12999437;19;20002;-66
2023/05/13 16:19:49;;;;;;;2.15;0.75;;;;;;;;;;12999443;19;20015;-66
2023/05/13 16:24:06;;;;;;;;;;;;;;;;;;12998986;19;20005;-65
2023/05/13 16:28:24;;;;;;;0.73;0.65;;;;;;;;;;12998350;19;20268;-66
2023/05/13 16:32:42;;;;;;;3.10;1.10;;;;;;;;;;12997983;19;20038;-66
2023/05/13 16:37:01;;;;;;;1.67;1.10;;;;;;;;;;12997179;19;20007;-66
2023/05/13 16:41:18;;;;;;;;;;;;;;;;;;13003846;19;20015;-66
2023/05/13 16:45:37;;;;;;;3.45;1.02;;;;;;;;;;13009823;19;19911;-66
2023/05/13 16:49:56;;;;;;;1.52;1.00;;;;;;;;;;13010334;19;20125;-65
2023/05/13 16:54:13;;;;;;;2.33;0.95;;;;;;;;;;13009238;19;20015;-65
2023/05/13 16:58:31;;;;;;;1.75;1.10;;;;;;;;;;13010128;19;20022;-65
2023/05/13 17:02:49;;;;;;;1.17;0.82;;;;;;;;;;13009776;19;20002;-66
2023/05/13 17:07:08;;;;;;;1.73;1.10;;;;;;;;;;13008251;19;20460;-67
2023/05/13 17:11:26;;;;;;;1.40;0.85;;;;;;;;;;13009390;19;20022;-66
2023/05/13 17:15:45;;;;;;;1.50;1.00;;;;;;;;;;13009098;19;20014;-65
2023/05/13 17:20:04;;;;;;;2.75;1.10;;;;;;;;;;13007076;19;20002;-65
2023/05/13 17:24:21;;;;;;;1.17;0.98;;;;;;;;;;13007317;19;20046;-66
2023/05/13 17:28:39;;;;;;;2.33;1.38;;;;;;;;;;13007802;19;20015;-66
2023/05/13 17:32:57;;;;;;;3.67;1.10;;;;;;;;;;13007841;19;20003;-66
2023/05/13 17:37:15;;;;;;;4.53;1.30;;;;;;;;;;13006719;19;20006;-66
2023/05/13 17:41:33;;;;;;;1.92;1.35;;;;;;;;;;13007606;19;20010;-65
2023/05/13 17:45:50;;;;;;;1.83;1.13;;;;;;;;;;13007568;19;20017;-66
2023/05/13 17:50:09;;;;;;;2.20;1.50;;;;;;;;;;13005937;19;20019;-67
2023/05/13 17:54:26;;;;;;;5.10;2.53;;;;;;;;;;13005129;19;20018;-67
2023/05/13 17:58:44;;;;;;;8.38;3.95;;;;;;;;;;13006582;19;20026;-66
2023/05/13 18:03:02;;;;;;;7.20;3.45;;;;;;;;;;13004938;19;20021;-65
2023/05/13 18:07:20;;;;;;;8.00;4.30;;;;;;;;;;13004816;19;20014;-65
2023/05/13 18:11:37;;;;;;;12.52;6.55;;;;;;;;;;13005502;19;19999;-67
2023/05/13 18:15:55;;;;;;;27.90;16.60;;;;;;;;;;13004733;19;20014;-65
2023/05/13 18:20:13;;;;;;;64.20;30.13;;;;;;;;;;13004329;19;20460;-66
2023/05/13 18:24:31;;;;;;;65.50;40.17;;;;;;;;;;13004571;19;20017;-65
2023/05/13 18:28:48;;;;;;;64.70;33.35;;;;;;;;;;13003135;19;20041;-65
2023/05/13 18:33:06;;;;;;;38.03;23.63;;;;;;;;;;13001513;19;19998;-64
2023/05/13 18:37:24;;;;;;;30.65;16.88;;;;;;;;;;13003761;19;20007;-65
2023/05/13 18:41:42;;;;;;;33.05;17.38;;;;;;;;;;13003775;19;20010;-64
2023/05/13 18:46:00;;;;;;;43.80;21.25;;;;;;;;;;13003239;19;20344;-65
2023/05/13 18:50:18;;;;;;;42.90;21.05;;;;;;;;;;13001054;19;20014;-66
2023/05/13 18:54:36;;;;;;;31.23;16.00;;;;;;;;;;13004016;19;20019;-66
2023/05/13 18:58:54;;;;;;;37.85;16.88;;;;;;;;;;13003513;19;20010;-64
2023/05/13 19:03:11;;;;;;;36.45;15.90;;;;;;;;;;13001719;19;20373;-62
2023/05/13 19:07:30;;;;;;;57.88;27.65;;;;;;;;;;13002034;19;20013;-61
2023/05/13 19:11:48;;;;;;;56.25;25.40;;;;;;;;;;13002082;19;20002;-61
2023/05/13 19:16:05;;;;;;;46.35;23.08;;;;;;;;;;13001392;19;20469;-62
2023/05/13 19:20:24;;;;;;;43.08;23.40;;;;;;;;;;13001544;19;20013;-62
2023/05/13 19:24:42;;;;;;;59.08;26.17;;;;;;;;;;13001766;19;20014;-62
2023/05/13 19:29:00;;;;;;;55.88;27.10;;;;;;;;;;13000803;19;20013;-63
2023/05/13 19:33:18;;;;;;;;;;;;;;;;;;13001917;19;20007;-62
2023/05/13 19:37:35;;;;;;;53.13;23.60;;;;;;;;;;13001365;19;19910;-62
2023/05/13 19:41:53;;;;;;;48.45;21.80;;;;;;;;;;13000847;19;20011;-62
2023/05/13 19:46:11;;;;;;;42.50;18.77;;;;;;;;;;12999590;19;20010;-61
2023/05/13 19:50:29;;;;;;;54.10;20.55;;;;;;;;;;13000229;19;20018;-61
2023/05/13 19:54:46;;;;;;;73.55;27.05;;;;;;;;;;13000177;19;20030;-61
2023/05/13 19:59:04;;;;;;;66.03;24.10;;;;;;;;;;12998928;19;20457;-61
2023/05/13 20:03:21;;;;;;;54.63;20.80;;;;;;;;;;12999675;19;20018;-61
2023/05/13 20:07:40;;;;;;;38.97;18.40;;;;;;;;;;12997400;19;20023;-62
2023/05/13 20:11:57;;;;;;;43.42;21.17;;;;;;;;;;12999408;19;20007;-62
2023/05/13 20:16:15;;;;;;;48.03;19.67;;;;;;;;;;13006174;19;20040;-62
2023/05/13 20:20:33;;;;;;;50.67;18.77;;;;;;;;;;13011564;19;20014;-62
2023/05/13 20:24:52;;;;;;;61.60;20.63;;;;;;;;;;13011787;19;20461;-62
2023/05/13 20:29:11;;;;;;;65.18;26.25;;;;;;;;;;13010002;19;20350;-62
2023/05/13 20:33:29;;;;;;;80.22;31.90;;;;;;;;;;13011058;19;20025;-62
2023/05/13 20:37:46;;;;;;;77.47;36.60;;;;;;;;;;13010846;19;20006;-61
2023/05/13 20:42:04;;;;;;;57.13;29.05;;;;;;;;;;13009326;19;20037;-61
2023/05/13 20:46:22;;;;;;;33.45;16.27;;;;;;;;;;13008965;19;20463;-61
2023/05/13 20:50:40;;;;;;;29.83;12.35;;;;;;;;;;13009279;19;20006;-61
2023/05/13 20:54:58;;;;;;;;;;;;;;;;;;12991719;19;20361;-61
2023/05/13 20:59:15;;;;;;;21.35;9.73;;;;;;;;;;13008951;19;19907;-62
2023/05/13 21:03:33;;;;;;;22.38;10.38;;;;;;;;;;13009256;19;20330;-61
2023/05/13 21:07:51;;;;;;;35.28;15.25;;;;;;;;;;13009338;19;20005;-62
2023/05/13 21:12:09;;;;;;;40.25;16.55;;;;;;;;;;13008029;19;20382;-62
2023/05/13 21:16:28;;;;;;;40.45;14.82;;;;;;;;;;13008854;19;20437;-62
2023/05/13 21:20:46;;;;;;;39.78;16.13;;;;;;;;;;13008704;19;20342;-61
2023/05/13 21:25:06;;;;;;;30.73;13.18;;;;;;;;;;13008376;19;20306;-61
2023/05/13 21:29:23;;;;;;;26.35;12.40;;;;;;;;;;13007459;19;20019;-61
2023/05/13 21:33:41;;;;;;;27.27;11.88;;;;;;;;;;13007710;19;20476;-61
2023/05/13 21:37:59;;;;;;;23.13;11.00;;;;;;;;;;13007025;19;20015;-61
2023/05/13 21:42:28;;;;;;;26.50;11.45;;;;;;;;;;13006742;19;20446;-61
2023/05/13 21:46:45;;;;;;;22.30;11.20;;;;;;;;;;13006976;19;20026;-61
2023/05/13 21:51:03;;;;;;;20.95;10.90;;;;;;;;;;13005828;19;20465;-61
2023/05/13 21:55:23;;;;;;;27.88;12.68;;;;;;;;;;13006338;19;20489;-61
2023/05/13 21:59:41;;;;;;;24.80;11.65;;;;;;;;;;13006288;19;20010;-61
2023/05/13 22:03:58;;;;;;;20.90;11.05;;;;;;;;;;13005990;19;20009;-61
2023/05/13 22:08:15;;;;;;;17.37;8.30;;;;;;;;;;13004249;19;20022;-61
2023/05/13 22:12:33;;;;;;;16.38;8.65;;;;;;;;;;13005615;19;20011;-62
2023/05/13 22:16:52;;;;;;;20.73;9.43;;;;;;;;;;13005175;19;20018;-61
2023/05/13 22:21:25;;;;;;;17.65;8.27;;;;;;;;;;13004978;19;20010;-61
2023/05/13 22:25:43;;;;;;;15.20;7.90;;;;;;;;;;13003030;19;20018;-62
2023/05/13 22:30:00;;;;;;;18.23;8.43;;;;;;;;;;13004574;19;20346;-61
2023/05/13 22:34:18;;;;;;;;;;;;;;;;;;13004657;19;20014;-61
2023/05/13 22:38:36;;;;;;;19.83;7.43;;;;;;;;;;13003041;19;19914;-61
2023/05/13 22:42:54;;;;;;;13.82;7.72;;;;;;;;;;13003500;19;20006;-61
2023/05/13 22:47:11;;;;;;;10.35;6.22;;;;;;;;;;13002871;19;20002;-61
2023/05/13 22:51:30;;;;;;;11.13;6.28;;;;;;;;;;13004035;19;20011;-62
2023/05/13 22:55:47;;;;;;;10.25;5.32;;;;;;;;;;13003378;19;20122;-61
2023/05/13 23:00:07;;;;;;;12.60;6.03;;;;;;;;;;13002208;19;20030;-61
2023/05/13 23:04:24;;;;;;;11.73;5.90;;;;;;;;;;13003208;19;20007;-61
2023/05/13 23:08:42;;;;;;;14.18;6.82;;;;;;;;;;13001714;19;20014;-61
2023/05/13 23:13:02;;;;;;;11.73;6.35;;;;;;;;;;13002144;19;20018;-60
2023/05/13 23:17:20;;;;;;;11.68;6.47;;;;;;;;;;13002165;19;20017;-61
2023/05/13 23:21:38;;;;;;;13.45;6.47;;;;;;;;;;13002047;19;20016;-62
2023/05/13 23:25:56;;;;;;;14.70;6.82;;;;;;;;;;13002279;19;20026;-61
2023/05/13 23:30:14;;;;;;;16.90;7.57;;;;;;;;;;13000712;19;20014;-62
2023/05/13 23:34:31;;;;;;;12.38;6.45;;;;;;;;;;13001492;19;20007;-62
2023/05/13 23:38:49;;;;;;;12.50;6.28;;;;;;;;;;13001341;19;20017;-63
2023/05/13 23:43:07;;;;;;;16.48;7.43;;;;;;;;;;13000510;19;20483;-62
2023/05/13 23:47:24;;;;;;;10.55;6.05;;;;;;;;;;13000610;19;20014;-61
2023/05/13 23:51:43;;;;;;;;;;;;;;;;;;13010184;19;20006;-61
2023/05/13 23:56:00;;;;;;;11.65;5.72;;;;;;;;;;13013344;19;20330;-61
